sensor_id;sensor_type;location;lat;lon;timestamp;pressure;altitude;pressure_sealevel;temperature;humidity
30744;BME280;17486;46.738;7.622;2024-03-08T00:02:13;58933.41;;;-148.81;100.00
30744;BME280;17486;46.738;7.622;2024-03-08T00:04:39;58933.41;;;-148.81;100.00
30744;BME280;17486;46.738;7.622;2024-03-08T00:07:04;58933.41;;;-148.81;100.00
30744;BME280;17486;46.738;7.622;2024-03-08T00:09:31;58933.41;;;-148.81;100.00
30744;BME280;17486;46.738;7.622;2024-03-08T00:11:56;58933.41;;;-148.81;100.00
30744;BME280;17486;46.738;7.622;2024-03-08T00:14:21;58933.41;;;-148.81;100.00
30744;BME280;17486;46.738;7.622;2024-03-08T00:16:47;58933.41;;;-148.81;100.00
30744;BME280;17486;46.738;7.622;2024-03-08T00:19:12;58933.41;;;-148.81;100.00
30744;BME280;17486;46.738;7.622;2024-03-08T00:21:38;58933.41;;;-148.81;100.00
30744;BME280;17486;46.738;7.622;2024-03-08T00:24:03;58933.41;;;-148.81;100.00
30744;BME280;17486;46.738;7.622;2024-03-08T00:26:29;58933.41;;;-148.81;100.00
30744;BME280;17486;46.738;7.622;2024-03-08T00:28:55;58933.41;;;-148.81;100.00
30744;BME280;17486;46.738;7.622;2024-03-08T00:31:20;58933.41;;;-148.81;100.00
30744;BME280;17486;46.738;7.622;2024-03-08T00:33:46;58933.41;;;-148.81;100.00
30744;BME280;17486;46.738;7.622;2024-03-08T00:36:11;58933.41;;;-148.81;100.00
30744;BME280;17486;46.738;7.622;2024-03-08T00:38:37;58933.41;;;-148.81;100.00
30744;BME280;17486;46.738;7.622;2024-03-08T00:41:02;58933.41;;;-148.81;100.00
30744;BME280;17486;46.738;7.622;2024-03-08T00:43:27;58933.41;;;-148.81;100.00
30744;BME280;17486;46.738;7.622;2024-03-08T00:45:53;58933.41;;;-148.81;100.00
30744;BME280;17486;46.738;7.622;2024-03-08T00:48:19;58933.41;;;-148.81;100.00
30744;BME280;17486;46.738;7.622;2024-03-08T00:50:44;58933.41;;;-148.81;100.00
30744;BME280;17486;46.738;7.622;2024-03-08T00:53:13;58933.41;;;-148.81;100.00
30744;BME280;17486;46.738;7.622;2024-03-08T00:55:39;58933.41;;;-148.81;100.00
30744;BME280;17486;46.738;7.622;2024-03-08T00:58:05;58933.41;;;-148.81;100.00
30744;BME280;17486;46.738;7.622;2024-03-08T01:00:30;58933.41;;;-148.81;100.00
30744;BME280;17486;46.738;7.622;2024-03-08T01:02:56;58933.41;;;-148.81;100.00
30744;BME280;17486;46.738;7.622;2024-03-08T01:05:24;58933.41;;;-148.81;100.00
30744;BME280;17486;46.738;7.622;2024-03-08T01:07:50;58933.41;;;-148.81;100.00
30744;BME280;17486;46.738;7.622;2024-03-08T01:10:16;58933.41;;;-148.81;100.00
30744;BME280;17486;46.738;7.622;2024-03-08T01:12:41;58933.41;;;-148.81;100.00
30744;BME280;17486;46.738;7.622;2024-03-08T01:15:09;58933.41;;;-148.81;100.00
30744;BME280;17486;46.738;7.622;2024-03-08T01:17:35;58933.41;;;-148.81;100.00
30744;BME280;17486;46.738;7.622;2024-03-08T01:20:01;58933.41;;;-148.81;100.00
30744;BME280;17486;46.738;7.622;2024-03-08T01:22:27;58933.41;;;-148.81;100.00
30744;BME280;17486;46.738;7.622;2024-03-08T01:24:55;58933.41;;;-148.81;100.00
30744;BME280;17486;46.738;7.622;2024-03-08T01:27:20;58933.41;;;-148.81;100.00
30744;BME280;17486;46.738;7.622;2024-03-08T01:29:45;58933.41;;;-148.81;100.00
30744;BME280;17486;46.738;7.622;2024-03-08T01:32:11;58933.41;;;-148.81;100.00
30744;BME280;17486;46.738;7.622;2024-03-08T01:34:37;58933.41;;;-148.81;100.00
30744;BME280;17486;46.738;7.622;2024-03-08T01:37:02;58933.41;;;-148.81;100.00
30744;BME280;17486;46.738;7.622;2024-03-08T01:39:28;58933.41;;;-148.81;100.00
30744;BME280;17486;46.738;7.622;2024-03-08T01:41:53;58933.41;;;-148.81;100.00
30744;BME280;17486;46.738;7.622;2024-03-08T01:44:19;58933.41;;;-148.81;100.00
30744;BME280;17486;46.738;7.622;2024-03-08T01:46:46;58933.41;;;-148.81;100.00
30744;BME280;17486;46.738;7.622;2024-03-08T01:49:13;58933.41;;;-148.81;100.00
30744;BME280;17486;46.738;7.622;2024-03-08T01:51:40;58933.41;;;-148.81;100.00
30744;BME280;17486;46.738;7.622;2024-03-08T01:54:06;58933.41;;;-148.81;100.00
30744;BME280;17486;46.738;7.622;2024-03-08T01:56:35;58933.41;;;-148.81;100.00
30744;BME280;17486;46.738;7.622;2024-03-08T01:59:01;58933.41;;;-148.81;100.00
30744;BME280;17486;46.738;7.622;2024-03-08T02:01:28;58933.41;;;-148.81;100.00
30744;BME280;17486;46.738;7.622;2024-03-08T02:03:53;58933.41;;;-148.81;100.00
30744;BME280;17486;46.738;7.622;2024-03-08T02:06:19;58933.41;;;-148.81;100.00
30744;BME280;17486;46.738;7.622;2024-03-08T02:08:54;94755.47;;;4.08;56.97
30744;BME280;17486;46.738;7.622;2024-03-08T02:11:19;94761.69;;;4.01;57.65
30744;BME280;17486;46.738;7.622;2024-03-08T02:13:46;94749.97;;;3.92;57.47
30744;BME280;17486;46.738;7.622;2024-03-08T02:16:11;94727.38;;;3.73;57.82
30744;BME280;17486;46.738;7.622;2024-03-08T02:18:37;94745.13;;;3.83;57.94
30744;BME280;17486;46.738;7.622;2024-03-08T02:21:05;94740.06;;;3.79;57.66
30744;BME280;17486;46.738;7.622;2024-03-08T02:23:32;94724.97;;;3.69;58.21
30744;BME280;17486;46.738;7.622;2024-03-08T02:25:58;94690.50;;;3.47;58.34
30744;BME280;17486;46.738;7.622;2024-03-08T02:28:24;94697.34;;;3.47;58.04
30744;BME280;17486;46.738;7.622;2024-03-08T02:30:50;94708.03;;;3.61;58.58
30744;BME280;17486;46.738;7.622;2024-03-08T02:33:17;94723.22;;;3.69;58.52
30744;BME280;17486;46.738;7.622;2024-03-08T02:35:44;94723.47;;;3.61;58.41
30744;BME280;17486;46.738;7.622;2024-03-08T02:38:13;94716.84;;;3.54;58.33
30744;BME280;17486;46.738;7.622;2024-03-08T02:40:44;94707.69;;;3.45;58.86
30744;BME280;17486;46.738;7.622;2024-03-08T02:43:11;94727.22;;;3.51;58.49
30744;BME280;17486;46.738;7.622;2024-03-08T02:45:36;94724.69;;;3.49;58.71
30744;BME280;17486;46.738;7.622;2024-03-08T02:48:02;94702.00;;;3.36;59.03
30744;BME280;17486;46.738;7.622;2024-03-08T02:50:28;94717.88;;;3.48;58.87
30744;BME280;17486;46.738;7.622;2024-03-08T02:52:53;94669.91;;;3.19;58.72
30744;BME280;17486;46.738;7.622;2024-03-08T02:55:19;94715.38;;;3.45;58.60
30744;BME280;17486;46.738;7.622;2024-03-08T02:57:46;94709.47;;;3.43;58.57
30744;BME280;17486;46.738;7.622;2024-03-08T03:00:13;94700.06;;;3.42;58.84
30744;BME280;17486;46.738;7.622;2024-03-08T03:02:39;94705.22;;;3.42;58.83
30744;BME280;17486;46.738;7.622;2024-03-08T03:05:05;94703.53;;;3.41;59.12
30744;BME280;17486;46.738;7.622;2024-03-08T03:07:34;94701.84;;;3.40;59.23
30744;BME280;17486;46.738;7.622;2024-03-08T03:10:00;94702.72;;;3.39;59.10
30744;BME280;17486;46.738;7.622;2024-03-08T03:12:27;94696.75;;;3.39;59.20
30744;BME280;17486;46.738;7.622;2024-03-08T03:14:52;94684.94;;;3.33;59.07
30744;BME280;17486;46.738;7.622;2024-03-08T03:17:18;94694.28;;;3.36;59.24
30744;BME280;17486;46.738;7.622;2024-03-08T03:19:43;94696.00;;;3.35;59.18
30744;BME280;17486;46.738;7.622;2024-03-08T03:22:08;94675.72;;;3.26;59.16
30744;BME280;17486;46.738;7.622;2024-03-08T03:24:35;94693.41;;;3.35;59.70
30744;BME280;17486;46.738;7.622;2024-03-08T03:27:04;94691.06;;;3.29;59.29
30744;BME280;17486;46.738;7.622;2024-03-08T03:29:44;94692.88;;;3.25;59.34
30744;BME280;17486;46.738;7.622;2024-03-08T03:32:15;94686.91;;;3.23;59.76
30744;BME280;17486;46.738;7.622;2024-03-08T03:34:41;94686.22;;;3.18;59.58
30744;BME280;17486;46.738;7.622;2024-03-08T03:37:07;94677.69;;;3.18;59.45
30744;BME280;17486;46.738;7.622;2024-03-08T03:39:38;94682.72;;;3.21;59.42
30744;BME280;17486;46.738;7.622;2024-03-08T03:42:18;94675.94;;;3.18;59.41
30744;BME280;17486;46.738;7.622;2024-03-08T03:44:48;94663.31;;;3.10;59.33
30744;BME280;17486;46.738;7.622;2024-03-08T03:47:14;94679.25;;;3.22;59.16
30744;BME280;17486;46.738;7.622;2024-03-08T03:49:43;94646.38;;;3.05;59.26
30744;BME280;17486;46.738;7.622;2024-03-08T03:52:09;94673.56;;;3.12;58.92
30744;BME280;17486;46.738;7.622;2024-03-08T03:54:35;94672.75;;;3.10;59.29
30744;BME280;17486;46.738;7.622;2024-03-08T03:57:01;94669.50;;;3.05;59.36
30744;BME280;17486;46.738;7.622;2024-03-08T03:59:28;94654.41;;;2.94;59.34
30744;BME280;17486;46.738;7.622;2024-03-08T04:01:53;94676.25;;;3.07;59.51
30744;BME280;17486;46.738;7.622;2024-03-08T04:04:20;94672.88;;;3.07;59.47
30744;BME280;17486;46.738;7.622;2024-03-08T04:06:45;94668.59;;;3.06;59.60
30744;BME280;17486;46.738;7.622;2024-03-08T04:09:11;94667.75;;;3.05;59.24
30744;BME280;17486;46.738;7.622;2024-03-08T04:11:38;94669.38;;;3.09;59.22
30744;BME280;17486;46.738;7.622;2024-03-08T04:14:03;94667.69;;;3.08;59.12
30744;BME280;17486;46.738;7.622;2024-03-08T04:16:30;94666.91;;;3.05;59.07
30744;BME280;17486;46.738;7.622;2024-03-08T04:18:57;94642.38;;;2.94;59.11
30744;BME280;17486;46.738;7.622;2024-03-08T04:21:22;94660.84;;;3.07;59.10
30744;BME280;17486;46.738;7.622;2024-03-08T04:23:47;94661.72;;;3.06;58.96
30744;BME280;17486;46.738;7.622;2024-03-08T04:26:13;94655.16;;;2.97;58.99
30744;BME280;17486;46.738;7.622;2024-03-08T04:28:39;94651.03;;;2.92;58.62
30744;BME280;17486;46.738;7.622;2024-03-08T04:31:04;94668.78;;;2.99;59.07
30744;BME280;17486;46.738;7.622;2024-03-08T04:33:30;94667.09;;;2.98;58.97
30744;BME280;17486;46.738;7.622;2024-03-08T04:35:55;94663.69;;;2.98;59.17
30744;BME280;17486;46.738;7.622;2024-03-08T04:38:21;94660.31;;;2.97;59.15
30744;BME280;17486;46.738;7.622;2024-03-08T04:40:47;94650.19;;;2.91;59.16
30744;BME280;17486;46.738;7.622;2024-03-08T04:43:14;94651.13;;;2.89;59.29
30744;BME280;17486;46.738;7.622;2024-03-08T04:45:39;94652.00;;;2.88;59.30
30744;BME280;17486;46.738;7.622;2024-03-08T04:48:07;94652.84;;;2.88;59.59
30744;BME280;17486;46.738;7.622;2024-03-08T04:50:33;94649.53;;;2.85;59.78
30744;BME280;17486;46.738;7.622;2024-03-08T04:52:59;94648.72;;;2.82;59.86
30744;BME280;17486;46.738;7.622;2024-03-08T04:55:24;94648.56;;;2.89;59.88
30744;BME280;17486;46.738;7.622;2024-03-08T04:57:50;94646.88;;;2.88;60.20
30744;BME280;17486;46.738;7.622;2024-03-08T05:00:16;94637.44;;;2.88;59.88
30744;BME280;17486;46.738;7.622;2024-03-08T05:02:41;94639.94;;;2.91;59.96
30744;BME280;17486;46.738;7.622;2024-03-08T05:05:07;94634.19;;;2.83;60.10
30744;BME280;17486;46.738;7.622;2024-03-08T05:07:34;94634.19;;;2.81;60.14
30744;BME280;17486;46.738;7.622;2024-03-08T05:10:00;94617.25;;;2.76;60.10
30744;BME280;17486;46.738;7.622;2024-03-08T05:12:27;94630.75;;;2.82;60.15
30744;BME280;17486;46.738;7.622;2024-03-08T05:14:53;94631.63;;;2.83;60.00
30744;BME280;17486;46.738;7.622;2024-03-08T05:17:19;94639.44;;;2.78;60.20
30744;BME280;17486;46.738;7.622;2024-03-08T05:19:44;94622.41;;;2.76;60.02
30744;BME280;17486;46.738;7.622;2024-03-08T05:22:10;94612.94;;;2.76;60.20
30744;BME280;17486;46.738;7.622;2024-03-08T05:24:35;94620.66;;;2.76;60.17
30744;BME280;17486;46.738;7.622;2024-03-08T05:27:00;94617.16;;;2.79;60.17
30744;BME280;17486;46.738;7.622;2024-03-08T05:29:27;94594.59;;;2.60;59.88
30744;BME280;17486;46.738;7.622;2024-03-08T05:31:54;94615.72;;;2.70;60.11
30744;BME280;17486;46.738;7.622;2024-03-08T05:34:20;94617.41;;;2.71;60.07
30744;BME280;17486;46.738;7.622;2024-03-08T05:36:47;94615.72;;;2.70;59.94
30744;BME280;17486;46.738;7.622;2024-03-08T05:39:15;94609.00;;;2.66;59.96
30744;BME280;17486;46.738;7.622;2024-03-08T05:41:41;94602.19;;;2.65;60.18
30744;BME280;17486;46.738;7.622;2024-03-08T05:44:07;94615.78;;;2.69;60.33
30744;BME280;17486;46.738;7.622;2024-03-08T05:46:33;94607.25;;;2.67;60.20
30744;BME280;17486;46.738;7.622;2024-03-08T05:48:59;94610.53;;;2.72;60.12
30744;BME280;17486;46.738;7.622;2024-03-08T05:51:25;94609.66;;;2.73;60.27
30744;BME280;17486;46.738;7.622;2024-03-08T05:53:53;94606.28;;;2.71;60.01
30744;BME280;17486;46.738;7.622;2024-03-08T05:56:21;94610.59;;;2.70;59.99
30744;BME280;17486;46.738;7.622;2024-03-08T05:58:48;94613.06;;;2.73;59.83
30744;BME280;17486;46.738;7.622;2024-03-08T06:01:15;94611.31;;;2.74;59.80
30744;BME280;17486;46.738;7.622;2024-03-08T06:03:40;94609.00;;;2.66;59.62
30744;BME280;17486;46.738;7.622;2024-03-08T06:06:12;94603.94;;;2.63;60.20
30744;BME280;17486;46.738;7.622;2024-03-08T06:08:37;94604.78;;;2.63;60.03
30744;BME280;17486;46.738;7.622;2024-03-08T06:11:03;94593.59;;;2.36;60.38
30744;BME280;17486;46.738;7.622;2024-03-08T06:13:29;94607.31;;;2.35;60.33
30744;BME280;17486;46.738;7.622;2024-03-08T06:15:56;94613.44;;;2.29;60.39
30744;BME280;17486;46.738;7.622;2024-03-08T06:18:22;94604.81;;;2.32;60.71
30744;BME280;17486;46.738;7.622;2024-03-08T06:20:47;94609.00;;;2.36;60.95
30744;BME280;17486;46.738;7.622;2024-03-08T06:23:13;94603.66;;;2.42;60.59
30744;BME280;17486;46.738;7.622;2024-03-08T06:25:45;94607.75;;;2.49;60.76
30744;BME280;17486;46.738;7.622;2024-03-08T06:28:11;94595.03;;;2.45;61.10
30744;BME280;17486;46.738;7.622;2024-03-08T06:30:36;94611.59;;;2.64;60.53
30744;BME280;17486;46.738;7.622;2024-03-08T06:33:02;94620.91;;;2.69;60.55
30744;BME280;17486;46.738;7.622;2024-03-08T06:35:27;94617.41;;;2.71;60.27
30744;BME280;17486;46.738;7.622;2024-03-08T06:37:53;94607.13;;;2.71;59.99
30744;BME280;17486;46.738;7.622;2024-03-08T06:40:18;94591.09;;;2.63;59.94
30744;BME280;17486;46.738;7.622;2024-03-08T06:42:44;94606.88;;;2.80;59.84
30744;BME280;17486;46.738;7.622;2024-03-08T06:45:09;94623.88;;;2.85;59.58
30744;BME280;17486;46.738;7.622;2024-03-08T06:47:36;94615.13;;;2.90;59.86
30744;BME280;17486;46.738;7.622;2024-03-08T06:50:02;94611.56;;;2.94;59.80
30744;BME280;17486;46.738;7.622;2024-03-08T06:52:29;94612.31;;;2.98;59.69
30744;BME280;17486;46.738;7.622;2024-03-08T06:54:54;94603.59;;;3.04;59.81
30744;BME280;17486;46.738;7.622;2024-03-08T06:57:19;94603.50;;;3.07;59.39
30744;BME280;17486;46.738;7.622;2024-03-08T06:59:48;94579.75;;;2.98;59.64
30744;BME280;17486;46.738;7.622;2024-03-08T07:02:14;94601.25;;;3.24;59.60
30744;BME280;17486;46.738;7.622;2024-03-08T07:04:39;94594.28;;;3.28;59.45
30744;BME280;17486;46.738;7.622;2024-03-08T07:07:05;94600.84;;;3.37;59.44
30744;BME280;17486;46.738;7.622;2024-03-08T07:09:33;94599.91;;;3.39;59.51
30744;BME280;17486;46.738;7.622;2024-03-08T07:11:58;94598.13;;;3.41;59.45
30744;BME280;17486;46.738;7.622;2024-03-08T07:14:24;94591.22;;;3.43;59.21
30744;BME280;17486;46.738;7.622;2024-03-08T07:16:50;94589.53;;;3.42;59.31
30744;BME280;17486;46.738;7.622;2024-03-08T07:19:16;94591.00;;;3.49;59.70
30744;BME280;17486;46.738;7.622;2024-03-08T07:21:45;94578.22;;;3.48;59.56
30744;BME280;17486;46.738;7.622;2024-03-08T07:24:12;94594.19;;;3.58;59.71
30744;BME280;17486;46.738;7.622;2024-03-08T07:27:05;94581.34;;;3.56;59.79
30744;BME280;17486;46.738;7.622;2024-03-08T07:29:32;94561.25;;;3.42;59.80
30744;BME280;17486;46.738;7.622;2024-03-08T07:31:58;94583.53;;;3.69;60.16
30744;BME280;17486;46.738;7.622;2024-03-08T07:34:26;94581.78;;;3.69;59.72
30744;BME280;17486;46.738;7.622;2024-03-08T07:36:51;94593.56;;;3.76;59.81
30744;BME280;17486;46.738;7.622;2024-03-08T07:39:17;94591.78;;;3.78;59.95
30744;BME280;17486;46.738;7.622;2024-03-08T07:41:42;94585.66;;;3.83;59.95
30744;BME280;17486;46.738;7.622;2024-03-08T07:44:08;94563.72;;;3.71;60.11
30744;BME280;17486;46.738;7.622;2024-03-08T07:46:34;94600.91;;;3.87;60.36
30744;BME280;17486;46.738;7.622;2024-03-08T07:49:00;94557.75;;;3.70;60.20
30744;BME280;17486;46.738;7.622;2024-03-08T07:51:25;94587.00;;;3.93;60.24
30744;BME280;17486;46.738;7.622;2024-03-08T07:53:51;94582.53;;;3.98;60.28
30744;BME280;17486;46.738;7.622;2024-03-08T07:56:17;94581.50;;;4.04;60.09
30744;BME280;17486;46.738;7.622;2024-03-08T07:58:44;94585.59;;;4.09;60.35
30744;BME280;17486;46.738;7.622;2024-03-08T08:01:18;94583.00;;;4.09;60.47
30744;BME280;17486;46.738;7.622;2024-03-08T08:03:44;94582.06;;;4.12;60.52
30744;BME280;17486;46.738;7.622;2024-03-08T08:06:10;94582.00;;;4.13;59.95
30744;BME280;17486;46.738;7.622;2024-03-08T08:08:44;94583.56;;;4.18;60.34
30744;BME280;17486;46.738;7.622;2024-03-08T08:11:10;94585.25;;;4.19;60.29
30744;BME280;17486;46.738;7.622;2024-03-08T08:13:36;94584.16;;;4.26;60.18
30744;BME280;17486;46.738;7.622;2024-03-08T08:16:02;94578.00;;;4.30;59.77
30744;BME280;17486;46.738;7.622;2024-03-08T08:18:29;94575.31;;;4.33;60.34
30744;BME280;17486;46.738;7.622;2024-03-08T08:20:55;94567.53;;;4.35;60.10
30744;BME280;17486;46.738;7.622;2024-03-08T08:23:20;94548.16;;;4.24;59.95
30744;BME280;17486;46.738;7.622;2024-03-08T08:25:46;94552.19;;;4.31;59.68
30744;BME280;17486;46.738;7.622;2024-03-08T08:28:16;94558.63;;;4.43;59.75
30744;BME280;17486;46.738;7.622;2024-03-08T08:30:43;94563.50;;;4.51;60.18
30744;BME280;17486;46.738;7.622;2024-03-08T08:33:08;94569.25;;;4.58;59.52
30744;BME280;17486;46.738;7.622;2024-03-08T08:35:34;94557.13;;;4.61;59.54
30744;BME280;17486;46.738;7.622;2024-03-08T08:37:59;94536.81;;;4.54;59.31
30744;BME280;17486;46.738;7.622;2024-03-08T08:40:25;94524.88;;;4.51;59.60
30744;BME280;17486;46.738;7.622;2024-03-08T08:42:51;94551.41;;;4.75;59.69
30744;BME280;17486;46.738;7.622;2024-03-08T08:45:18;94556.34;;;4.81;59.13
30744;BME280;17486;46.738;7.622;2024-03-08T08:47:44;94550.19;;;4.86;59.08
30744;BME280;17486;46.738;7.622;2024-03-08T08:50:10;94543.03;;;4.92;59.04
30744;BME280;17486;46.738;7.622;2024-03-08T08:52:39;94539.41;;;4.98;58.95
30744;BME280;17486;46.738;7.622;2024-03-08T08:55:05;94545.03;;;5.08;58.37
30744;BME280;17486;46.738;7.622;2024-03-08T08:57:32;94539.81;;;5.09;58.24
30744;BME280;17486;46.738;7.622;2024-03-08T08:59:58;94520.34;;;5.02;58.58
30744;BME280;17486;46.738;7.622;2024-03-08T09:02:24;94532.78;;;5.13;58.06
30744;BME280;17486;46.738;7.622;2024-03-08T09:04:50;94518.53;;;5.04;57.83
30744;BME280;17486;46.738;7.622;2024-03-08T09:07:16;94535.00;;;5.22;57.94
30744;BME280;17486;46.738;7.622;2024-03-08T09:09:44;94526.25;;;5.26;57.69
30744;BME280;17486;46.738;7.622;2024-03-08T09:12:10;94521.75;;;5.31;57.57
30744;BME280;17486;46.738;7.622;2024-03-08T09:14:40;94520.84;;;5.32;57.84
30744;BME280;17486;46.738;7.622;2024-03-08T09:17:05;94511.56;;;5.28;57.59
30744;BME280;17486;46.738;7.622;2024-03-08T09:19:34;94532.78;;;5.35;57.66
30744;BME280;17486;46.738;7.622;2024-03-08T09:21:59;94533.50;;;5.39;57.02
30744;BME280;17486;46.738;7.622;2024-03-08T09:24:25;94530.84;;;5.40;57.60
30744;BME280;17486;46.738;7.622;2024-03-08T09:26:51;94519.56;;;5.43;57.51
30744;BME280;17486;46.738;7.622;2024-03-08T09:29:17;94521.13;;;5.47;57.15
30744;BME280;17486;46.738;7.622;2024-03-08T09:31:42;94496.53;;;5.38;57.08
30744;BME280;17486;46.738;7.622;2024-03-08T09:34:08;94506.44;;;5.49;57.40
30744;BME280;17486;46.738;7.622;2024-03-08T09:36:34;94492.59;;;5.50;56.96
30744;BME280;17486;46.738;7.622;2024-03-08T09:38:59;94516.16;;;5.63;56.52
30744;BME280;17486;46.738;7.622;2024-03-08T09:41:26;94515.81;;;5.71;56.92
30744;BME280;17486;46.738;7.622;2024-03-08T09:43:51;94512.13;;;5.76;56.67
30744;BME280;17486;46.738;7.622;2024-03-08T09:46:18;94513.72;;;5.80;56.87
30744;BME280;17486;46.738;7.622;2024-03-08T09:48:45;94513.63;;;5.82;56.87
30744;BME280;17486;46.738;7.622;2024-03-08T09:51:12;94513.63;;;5.82;56.17
30744;BME280;17486;46.738;7.622;2024-03-08T09:53:40;94502.28;;;5.86;56.55
30744;BME280;17486;46.738;7.622;2024-03-08T09:56:07;94485.25;;;5.82;56.57
30744;BME280;17486;46.738;7.622;2024-03-08T09:58:33;94511.13;;;6.01;56.37
30744;BME280;17486;46.738;7.622;2024-03-08T10:00:59;94492.16;;;6.02;55.85
30744;BME280;17486;46.738;7.622;2024-03-08T10:03:27;94491.19;;;6.05;55.80
30744;BME280;17486;46.738;7.622;2024-03-08T10:05:54;94476.41;;;5.88;55.36
30744;BME280;17486;46.738;7.622;2024-03-08T10:08:29;94484.97;;;6.09;55.94
30744;BME280;17486;46.738;7.622;2024-03-08T10:10:55;94487.44;;;6.12;55.09
30744;BME280;17486;46.738;7.622;2024-03-08T10:13:21;94479.63;;;6.13;54.85
30744;BME280;17486;46.738;7.622;2024-03-08T10:15:47;94482.81;;;6.19;54.93
30744;BME280;17486;46.738;7.622;2024-03-08T10:18:12;94473.25;;;6.21;55.15
30744;BME280;17486;46.738;7.622;2024-03-08T10:20:38;94479.94;;;6.25;55.07
30744;BME280;17486;46.738;7.622;2024-03-08T10:23:04;94478.00;;;6.30;54.45
30744;BME280;17486;46.738;7.622;2024-03-08T10:25:34;94465.03;;;6.32;54.59
30744;BME280;17486;46.738;7.622;2024-03-08T10:28:00;94473.97;;;6.43;54.68
30744;BME280;17486;46.738;7.622;2024-03-08T10:30:29;94471.88;;;6.52;54.15
30744;BME280;17486;46.738;7.622;2024-03-08T10:32:54;94470.66;;;6.59;54.32
30744;BME280;17486;46.738;7.622;2024-03-08T10:35:20;94457.34;;;6.68;53.78
30744;BME280;17486;46.738;7.622;2024-03-08T10:37:48;94458.41;;;6.82;53.74
30744;BME280;17486;46.738;7.622;2024-03-08T10:40:18;94454.94;;;7.00;53.90
30744;BME280;17486;46.738;7.622;2024-03-08T10:42:59;94445.66;;;7.13;53.68
30744;BME280;17486;46.738;7.622;2024-03-08T10:45:35;94403.41;;;6.97;53.61
30744;BME280;17486;46.738;7.622;2024-03-08T10:48:10;94443.31;;;7.26;53.07
30744;BME280;17486;46.738;7.622;2024-03-08T10:50:41;94444.91;;;7.29;53.16
30744;BME280;17486;46.738;7.622;2024-03-08T10:53:11;94407.75;;;7.14;52.94
30744;BME280;17486;46.738;7.622;2024-03-08T10:55:40;94432.75;;;7.49;53.02
30744;BME280;17486;46.738;7.622;2024-03-08T10:58:08;94437.38;;;7.42;53.03
30744;BME280;17486;46.738;7.622;2024-03-08T11:00:35;94433.44;;;7.52;52.73
30744;BME280;17486;46.738;7.622;2024-03-08T11:03:00;94428.69;;;7.60;52.42
30744;BME280;17486;46.738;7.622;2024-03-08T11:05:37;94424.81;;;7.69;52.71
30744;BME280;17486;46.738;7.622;2024-03-08T11:08:24;94429.31;;;7.82;52.59
30744;BME280;17486;46.738;7.622;2024-03-08T11:10:50;94426.34;;;7.89;52.02
30744;BME280;17486;46.738;7.622;2024-03-08T11:13:36;94421.56;;;7.82;51.80
30744;BME280;17486;46.738;7.622;2024-03-08T11:16:02;94407.09;;;7.77;51.69
30744;BME280;17486;46.738;7.622;2024-03-08T11:18:33;94394.59;;;7.86;52.07
30744;BME280;17486;46.738;7.622;2024-03-08T11:21:02;94411.41;;;8.26;52.09
30744;BME280;17486;46.738;7.622;2024-03-08T11:23:30;94405.19;;;8.46;51.84
30744;BME280;17486;46.738;7.622;2024-03-08T11:25:56;94402.84;;;8.74;52.27
30744;BME280;17486;46.738;7.622;2024-03-08T11:28:25;94399.03;;;8.95;51.33
30744;BME280;17486;46.738;7.622;2024-03-08T11:33:27;94401.84;;;9.52;50.39
30744;BME280;17486;46.738;7.622;2024-03-08T11:36:20;94401.09;;;9.78;50.22
30744;BME280;17486;46.738;7.622;2024-03-08T11:38:56;94376.19;;;9.90;49.13
30744;BME280;17486;46.738;7.622;2024-03-08T11:41:23;94383.84;;;10.21;49.20
30744;BME280;17486;46.738;7.622;2024-03-08T11:43:52;94377.22;;;10.29;49.02
30744;BME280;17486;46.738;7.622;2024-03-08T11:46:26;94361.88;;;10.54;47.86
30744;BME280;17486;46.738;7.622;2024-03-08T11:48:54;94344.34;;;10.57;47.50
30744;BME280;17486;46.738;7.622;2024-03-08T11:51:21;94344.16;;;10.73;47.30
30744;BME280;17486;46.738;7.622;2024-03-08T11:53:49;94335.44;;;10.74;46.74
30744;BME280;17486;46.738;7.622;2024-03-08T11:56:15;94345.16;;;10.98;46.43
30744;BME280;17486;46.738;7.622;2024-03-08T11:58:41;94336.94;;;11.04;46.13
30744;BME280;17486;46.738;7.622;2024-03-08T12:01:08;94332.50;;;11.19;45.67
30744;BME280;17486;46.738;7.622;2024-03-08T12:03:38;94303.06;;;11.19;45.79
30744;BME280;17486;46.738;7.622;2024-03-08T12:06:04;94317.50;;;11.49;45.68
30744;BME280;17486;46.738;7.622;2024-03-08T12:08:32;94304.06;;;11.55;45.71
30744;BME280;17486;46.738;7.622;2024-03-08T12:10:58;94318.75;;;11.82;44.67
30744;BME280;17486;46.738;7.622;2024-03-08T12:13:33;94314.88;;;12.00;44.77
30744;BME280;17486;46.738;7.622;2024-03-08T12:16:00;94306.91;;;12.15;44.80
30744;BME280;17486;46.738;7.622;2024-03-08T12:18:26;94291.94;;;12.30;44.12
30744;BME280;17486;46.738;7.622;2024-03-08T12:20:51;94281.97;;;12.48;43.94
30744;BME280;17486;46.738;7.622;2024-03-08T12:23:28;94276.56;;;12.62;43.52
30744;BME280;17486;46.738;7.622;2024-03-08T12:25:54;94278.56;;;12.83;43.35
30744;BME280;17486;46.738;7.622;2024-03-08T12:28:19;94263.63;;;12.96;42.75
30744;BME280;17486;46.738;7.622;2024-03-08T12:30:51;94269.34;;;13.01;42.69
30744;BME280;17486;46.738;7.622;2024-03-08T12:33:22;94264.59;;;13.18;42.57
30744;BME280;17486;46.738;7.622;2024-03-08T12:35:52;94243.72;;;13.18;42.13
30744;BME280;17486;46.738;7.622;2024-03-08T12:38:21;94252.75;;;13.14;42.04
30744;BME280;17486;46.738;7.622;2024-03-08T12:40:50;94240.88;;;13.09;42.35
30744;BME280;17486;46.738;7.622;2024-03-08T12:43:16;94240.88;;;13.09;42.26
30744;BME280;17486;46.738;7.622;2024-03-08T12:45:41;94213.56;;;12.91;42.04
30744;BME280;17486;46.738;7.622;2024-03-08T12:48:13;94238.94;;;12.89;41.85
30744;BME280;17486;46.738;7.622;2024-03-08T12:50:42;94226.09;;;12.74;42.07
30744;BME280;17486;46.738;7.622;2024-03-08T12:53:13;94195.19;;;12.46;41.62
30744;BME280;17486;46.738;7.622;2024-03-08T12:55:38;94218.06;;;12.18;41.39
30744;BME280;17486;46.738;7.622;2024-03-08T12:58:04;94190.63;;;11.88;42.17
30744;BME280;17486;46.738;7.622;2024-03-08T13:00:33;94208.06;;;11.87;42.49
30744;BME280;17486;46.738;7.622;2024-03-08T13:03:01;94195.56;;;11.80;43.16
30744;BME280;17486;46.738;7.622;2024-03-08T13:05:26;94193.78;;;11.80;43.61